Time;durP1;ratioP1;P1;durP2;ratioP2;P2;SDS_P1;SDS_P2;PMS_P1;PMS_P2;Temp;Humidity;BMP_temperature;BMP_pressure;BME280_temperature;BME280_humidity;BME280_pressure;Samples;Min_cycle;Max_cycle;Signal;HPM_P1;HPM_P2
2023/09/06 00:01:25;;;;;;;6.23;5.40;;;16.90;99.90;;;;;;5024377;28;20178;-73
2023/09/06 00:03:50;;;;;;;4.63;4.20;;;17.00;99.90;;;;;;5019753;28;20190;-73
2023/09/06 00:06:16;;;;;;;5.40;4.90;;;16.90;99.90;;;;;;5017076;28;20677;-73
2023/09/06 00:08:42;;;;;;;5.00;4.60;;;16.80;99.90;;;;;;5020707;28;20229;-74
2023/09/06 00:11:09;;;;;;;5.77;5.17;;;16.90;99.90;;;;;;5021709;28;20205;-76
2023/09/06 00:13:35;;;;;;;4.75;4.35;;;16.80;99.90;;;;;;5024362;28;20444;-73
2023/09/06 00:16:02;;;;;;;5.13;4.68;;;16.70;99.90;;;;;;5028647;28;20581;-73
2023/09/06 00:18:28;;;;;;;5.65;5.10;;;16.60;99.90;;;;;;5014421;28;20195;-73
2023/09/06 00:20:54;;;;;;;5.00;4.57;;;16.70;99.90;;;;;;5023858;28;20170;-73
2023/09/06 00:23:20;;;;;;;6.22;5.63;;;16.90;99.90;;;;;;5018759;28;20183;-73
2023/09/06 00:25:46;;;;;;;5.32;4.82;;;16.60;99.90;;;;;;5019392;28;20186;-73
2023/09/06 00:28:13;;;;;;;5.17;4.77;;;16.60;99.90;;;;;;5022684;28;20225;-73
2023/09/06 00:30:39;;;;;;;5.90;5.40;;;16.80;99.90;;;;;;5022703;28;20452;-75
2023/09/06 00:33:06;;;;;;;5.80;5.30;;;16.50;99.90;;;;;;5017479;28;20213;-73
2023/09/06 00:35:32;;;;;;;4.95;4.45;;;16.70;99.90;;;;;;5019763;28;20199;-75
2023/09/06 00:38:04;;;;;;;5.75;4.90;;;16.60;99.90;;;;;;5020288;28;20203;-74
2023/09/06 00:40:30;;;;;;;5.80;4.95;;;16.40;99.90;;;;;;5022496;28;20197;-76
2023/09/06 00:42:59;;;;;;;6.83;5.23;;;16.50;99.90;;;;;;5020009;28;20186;-72
2023/09/06 00:45:37;;;;;;;4.95;4.55;;;16.50;99.90;;;;;;5021472;28;20265;-72
2023/09/06 00:48:05;;;;;;;5.32;4.82;;;16.50;99.90;;;;;;5024803;28;20799;-75
2023/09/06 00:50:35;;;;;;;5.68;5.18;;;16.40;99.90;;;;;;5024673;28;20177;-75
2023/09/06 00:53:04;;;;;;;5.75;5.20;;;16.30;99.90;;;;;;5025096;28;20261;-73
2023/09/06 00:55:29;;;;;;;5.95;5.35;;;16.10;99.90;;;;;;5020201;28;20213;-74
2023/09/06 00:57:55;;;;;;;5.40;4.90;;;16.30;99.90;;;;;;5028930;28;20206;-72
2023/09/06 01:00:24;;;;;;;5.43;4.73;;;16.20;99.90;;;;;;5017047;28;20640;-73
2023/09/06 01:02:50;;;;;;;5.43;4.93;;;16.30;99.90;;;;;;5024484;28;20448;-73
2023/09/06 01:05:18;;;;;;;5.63;5.03;;;16.10;99.90;;;;;;5020968;28;20186;-73
2023/09/06 01:07:49;;;;;;;5.50;4.80;;;16.00;99.90;;;;;;5019622;28;20296;-73
2023/09/06 01:10:15;;;;;;;5.10;4.55;;;16.20;99.90;;;;;;5025734;28;20190;-73
2023/09/06 01:12:40;;;;;;;5.93;5.23;;;16.20;99.90;;;;;;5021544;28;20235;-74
2023/09/06 01:15:07;;;;;;;5.50;5.00;;;16.10;99.90;;;;;;5021915;28;20205;-72
2023/09/06 01:17:36;;;;;;;6.22;5.35;;;16.00;99.90;;;;;;5021157;28;20206;-74
2023/09/06 01:20:15;;;;;;;6.35;5.78;;;15.90;99.90;;;;;;5020441;28;20178;-74
2023/09/06 01:23:03;;;;;;;5.60;5.10;;;15.90;99.90;;;;;;5022443;28;21564;-73
2023/09/06 01:25:29;;;;;;;5.57;5.03;;;16.00;99.90;;;;;;5018855;28;20672;-73
2023/09/06 01:27:55;;;;;;;5.93;5.43;;;15.60;99.90;;;;;;5020836;28;20237;-73
2023/09/06 01:30:21;;;;;;;6.10;5.50;;;15.90;99.90;;;;;;5019890;28;20277;-73
2023/09/06 01:32:47;;;;;;;7.43;5.23;;;15.90;99.90;;;;;;5021125;28;20286;-73
2023/09/06 01:35:12;;;;;;;5.17;4.67;;;15.90;99.90;;;;;;5023317;28;20197;-74
2023/09/06 01:37:38;;;;;;;5.27;4.77;;;15.90;99.90;;;;;;5020354;28;20210;-75
2023/09/06 01:40:16;;;;;;;5.53;4.93;;;15.80;99.90;;;;;;5017153;28;20194;-76
2023/09/06 01:42:43;;;;;;;6.05;5.55;;;15.80;99.90;;;;;;5037591;28;20190;-74
2023/09/06 01:45:09;;;;;;;5.30;4.80;;;16.00;99.90;;;;;;5022690;28;20182;-75
2023/09/06 01:47:35;;;;;;;5.30;4.90;;;15.80;99.90;;;;;;5018011;28;20575;-74
2023/09/06 01:50:00;;;;;;;6.87;6.17;;;15.90;99.90;;;;;;5024324;28;20205;-73
2023/09/06 01:52:26;;;;;;;5.70;4.90;;;15.50;99.90;;;;;;5026442;28;20195;-73
2023/09/06 01:54:52;;;;;;;6.50;5.80;;;15.80;99.90;;;;;;5026249;28;20198;-73
2023/09/06 01:57:17;;;;;;;5.80;5.27;;;15.90;99.90;;;;;;5022817;28;20728;-75
2023/09/06 01:59:43;;;;;;;5.73;5.23;;;15.60;99.90;;;;;;5025579;28;20185;-74
2023/09/06 02:02:08;;;;;;;6.30;5.00;;;15.50;99.90;;;;;;5028059;28;20548;-73
2023/09/06 02:04:34;;;;;;;5.90;5.30;;;15.60;99.90;;;;;;5028549;28;20266;-74
2023/09/06 02:07:02;;;;;;;6.90;4.90;;;15.40;99.90;;;;;;5023448;28;20186;-73
2023/09/06 02:09:28;;;;;;;5.93;5.32;;;15.60;99.90;;;;;;5024661;28;20171;-74
2023/09/06 02:11:55;;;;;;;6.30;5.30;;;15.60;99.90;;;;;;5027055;28;20193;-73
2023/09/06 02:14:22;;;;;;;5.30;4.80;;;15.30;99.90;;;;;;5028699;28;20187;-75
2023/09/06 02:16:47;;;;;;;8.02;5.78;;;15.20;99.90;;;;;;5028885;28;20210;-73
2023/09/06 02:19:13;;;;;;;6.53;5.87;;;15.30;99.90;;;;;;5029185;28;20212;-72
2023/09/06 02:21:39;;;;;;;6.17;5.57;;;15.40;99.90;;;;;;5023156;28;20525;-72
2023/09/06 02:24:08;;;;;;;5.50;5.00;;;14.80;99.90;;;;;;5026093;28;20190;-72
2023/09/06 02:26:34;;;;;;;5.57;5.00;;;15.30;99.90;;;;;;5025794;28;20445;-74
2023/09/06 02:29:00;;;;;;;5.20;4.70;;;15.30;99.90;;;;;;5023678;28;20210;-74
2023/09/06 02:31:26;;;;;;;6.05;5.47;;;15.10;99.90;;;;;;5020352;28;20484;-74
2023/09/06 02:33:52;;;;;;;6.40;5.20;;;15.10;99.90;;;;;;5023766;28;20214;-72
2023/09/06 02:36:17;;;;;;;5.80;5.30;;;15.20;99.90;;;;;;5023363;28;20258;-72
2023/09/06 02:38:43;;;;;;;7.20;5.77;;;15.30;99.90;;;;;;5016792;28;20989;-73
2023/09/06 02:41:09;;;;;;;7.00;5.97;;;15.20;99.90;;;;;;5030090;28;20224;-74
2023/09/06 02:43:35;;;;;;;6.70;5.70;;;15.20;99.90;;;;;;5028668;28;20175;-74
2023/09/06 02:46:03;;;;;;;5.43;4.90;;;15.00;99.90;;;;;;5026282;28;20194;-72
2023/09/06 02:48:29;;;;;;;5.63;5.13;;;15.00;99.90;;;;;;5024852;28;20488;-73
2023/09/06 02:50:56;;;;;;;6.05;5.45;;;15.00;99.90;;;;;;5021941;28;20221;-72
2023/09/06 02:53:22;;;;;;;5.60;5.10;;;14.90;99.90;;;;;;5024408;28;20560;-74
2023/09/06 02:55:51;;;;;;;6.20;5.60;;;15.00;99.90;;;;;;5017285;28;20209;-76
2023/09/06 02:58:18;;;;;;;6.32;5.82;;;15.10;99.90;;;;;;5026050;28;20276;-74
2023/09/06 03:00:47;;;;;;;6.20;5.60;;;14.90;99.90;;;;;;5020941;28;20179;-72
2023/09/06 03:03:15;;;;;;;5.75;5.25;;;14.90;99.90;;;;;;5028317;28;20210;-73
2023/09/06 03:05:42;;;;;;;6.55;5.95;;;14.80;99.90;;;;;;5019900;28;20189;-72
2023/09/06 03:08:09;;;;;;;6.35;5.75;;;14.80;99.90;;;;;;5024048;28;20294;-73
2023/09/06 03:10:35;;;;;;;6.65;5.60;;;14.80;99.90;;;;;;5021983;28;20674;-74
2023/09/06 03:13:02;;;;;;;5.70;5.10;;;14.80;99.90;;;;;;5027445;28;20539;-74
2023/09/06 03:15:28;;;;;;;7.13;5.88;;;14.70;99.90;;;;;;5028010;28;20222;-74
2023/09/06 03:18:02;;;;;;;6.65;6.05;;;15.00;99.90;;;;;;5024410;28;20257;-76
2023/09/06 03:20:32;;;;;;;5.93;5.43;;;14.80;99.90;;;;;;5026909;28;20185;-74
2023/09/06 03:23:02;;;;;;;7.18;5.30;;;14.70;99.90;;;;;;5015420;28;20187;-74
2023/09/06 03:25:29;;;;;;;7.18;5.93;;;14.60;99.90;;;;;;5024632;28;20178;-76
2023/09/06 03:28:02;;;;;;;6.68;5.63;;;14.80;99.90;;;;;;5022615;28;20214;-74
2023/09/06 03:30:30;;;;;;;5.47;4.97;;;14.60;99.90;;;;;;5029943;28;20189;-74
2023/09/06 03:32:56;;;;;;;5.70;5.20;;;14.80;99.90;;;;;;5021222;28;20190;-74
2023/09/06 03:35:22;;;;;;;6.40;5.75;;;14.60;99.90;;;;;;5043363;28;20288;-72
2023/09/06 03:37:49;;;;;;;6.33;5.73;;;14.60;99.90;;;;;;5020398;28;20286;-74
2023/09/06 03:40:37;;;;;;;6.47;5.43;;;14.70;99.90;;;;;;5024775;28;20498;-74
2023/09/06 03:43:05;;;;;;;6.47;5.88;;;14.90;99.90;;;;;;5025506;28;20193;-77
2023/09/06 03:45:32;;;;;;;5.80;5.30;;;14.70;99.90;;;;;;5022558;28;20664;-75
2023/09/06 03:47:57;;;;;;;6.10;5.50;;;14.50;99.90;;;;;;5023852;28;20214;-76
2023/09/06 03:50:27;;;;;;;6.00;5.40;;;14.60;99.90;;;;;;5019217;28;20187;-77
2023/09/06 03:52:53;;;;;;;8.32;5.80;;;14.70;99.90;;;;;;5033266;28;20273;-75
2023/09/06 03:55:20;;;;;;;6.47;5.87;;;14.80;99.90;;;;;;5024787;28;20278;-75
2023/09/06 03:57:46;;;;;;;9.45;8.38;;;14.50;99.90;;;;;;5023395;28;20209;-75
2023/09/06 04:00:31;;;;;;;6.10;5.55;;;14.60;99.90;;;;;;5018180;28;20463;-75
2023/09/06 04:02:58;;;;;;;7.60;6.13;;;14.60;99.90;;;;;;5022105;28;20218;-73
2023/09/06 04:05:27;;;;;;;7.13;5.95;;;14.60;99.90;;;;;;5024076;28;20186;-74
2023/09/06 04:07:58;;;;;;;7.45;5.32;;;14.50;99.90;;;;;;5030029;28;20570;-75
2023/09/06 04:10:24;;;;;;;6.90;6.20;;;14.30;99.90;;;;;;5023498;28;20197;-75
2023/09/06 04:12:55;;;;;;;5.57;5.05;;;14.20;99.90;;;;;;5019290;28;20559;-74
2023/09/06 04:15:21;;;;;;;9.98;5.65;;;14.00;99.90;;;;;;5020423;28;20609;-74
2023/09/06 04:18:09;;;;;;;6.10;5.60;;;14.40;99.90;;;;;;5023406;28;20230;-77
2023/09/06 04:20:36;;;;;;;6.55;5.95;;;14.30;99.90;;;;;;5025320;28;20213;-77
2023/09/06 04:23:07;;;;;;;8.23;5.18;;;14.40;99.90;;;;;;5025325;28;20252;-77
2023/09/06 04:25:41;;;;;;;8.05;6.10;;;14.50;99.90;;;;;;5022168;28;20271;-76
2023/09/06 04:28:11;;;;;;;5.90;5.32;;;14.40;99.90;;;;;;5024071;28;20234;-76
2023/09/06 04:30:38;;;;;;;6.07;5.57;;;14.30;99.90;;;;;;5025373;28;20178;-75
2023/09/06 04:33:12;;;;;;;6.40;5.80;;;14.40;99.90;;;;;;5029466;28;20186;-76
2023/09/06 04:35:42;;;;;;;8.25;5.75;;;14.30;99.90;;;;;;5024098;28;20209;-77
2023/09/06 04:38:09;;;;;;;6.45;5.72;;;14.30;99.90;;;;;;5027299;28;20208;-78
2023/09/06 04:40:35;;;;;;;5.60;5.10;;;14.10;99.90;;;;;;5021953;28;20179;-76
2023/09/06 04:43:01;;;;;;;6.22;5.63;;;14.40;99.90;;;;;;5026598;28;20196;-76
2023/09/06 04:45:26;;;;;;;7.27;5.80;;;14.50;99.90;;;;;;5025022;28;20190;-75
2023/09/06 04:57:58;;;;;;;5.65;5.15;;;14.50;99.90;;;;;;5015766;23;20265;-74
2023/09/06 05:00:32;;;;;;;7.07;5.22;;;14.40;99.90;;;;;;5005207;28;20211;-73
2023/09/06 05:03:00;;;;;;;6.47;5.53;;;14.20;99.90;;;;;;5005700;28;20651;-73
2023/09/06 05:05:26;;;;;;;6.65;5.95;;;14.20;99.90;;;;;;5005405;28;20201;-73
2023/09/06 05:07:51;;;;;;;7.00;5.83;;;14.30;99.90;;;;;;5005245;28;20198;-73
2023/09/06 05:10:17;;;;;;;6.97;6.07;;;14.20;99.90;;;;;;5005809;28;20191;-73
2023/09/06 05:12:45;;;;;;;6.20;5.45;;;14.20;99.90;;;;;;5006397;28;20182;-74
2023/09/06 05:15:12;;;;;;;6.38;5.78;;;14.20;99.90;;;;;;5007510;28;20627;-74
2023/09/06 05:17:41;;;;;;;8.57;6.50;;;14.20;99.90;;;;;;5001820;28;20584;-73
2023/09/06 05:20:26;;;;;;;7.60;6.53;;;14.10;99.90;;;;;;5001553;28;20213;-74
2023/09/06 05:22:52;;;;;;;6.95;6.10;;;14.00;99.90;;;;;;5005478;28;20179;-74
2023/09/06 05:25:18;;;;;;;6.40;5.80;;;14.40;99.90;;;;;;5006299;28;20557;-75
2023/09/06 05:27:43;;;;;;;9.47;7.23;;;14.30;99.90;;;;;;5007891;28;20460;-74
2023/09/06 05:30:09;;;;;;;6.90;6.30;;;14.30;99.90;;;;;;5005908;28;20534;-73
2023/09/06 05:32:35;;;;;;;6.60;5.90;;;14.60;99.90;;;;;;5008056;28;20233;-74
2023/09/06 05:35:00;;;;;;;7.37;6.57;;;14.40;99.90;;;;;;5005390;28;20465;-74
2023/09/06 05:37:26;;;;;;;7.17;5.67;;;14.30;99.90;;;;;;5005870;28;20217;-74
2023/09/06 05:39:52;;;;;;;7.20;6.50;;;14.60;99.90;;;;;;5006306;28;20177;-74
2023/09/06 05:42:17;;;;;;;7.10;6.30;;;14.40;99.90;;;;;;5005903;28;20187;-74
2023/09/06 05:44:43;;;;;;;7.37;6.67;;;14.40;99.90;;;;;;5007124;28;20209;-73
2023/09/06 05:47:09;;;;;;;6.37;5.77;;;14.50;99.90;;;;;;5006159;28;20205;-73
2023/09/06 05:49:35;;;;;;;7.93;6.00;;;14.80;99.90;;;;;;5005241;28;20210;-74
2023/09/06 05:52:02;;;;;;;6.50;5.82;;;14.50;99.90;;;;;;5007087;28;20529;-74
2023/09/06 05:54:28;;;;;;;7.13;6.43;;;14.60;99.90;;;;;;5006313;28;20196;-74
2023/09/06 05:56:53;;;;;;;8.43;7.20;;;14.80;99.90;;;;;;5000706;28;20603;-74
2023/09/06 05:59:19;;;;;;;8.20;7.30;;;14.80;99.90;;;;;;5007313;28;20496;-73
2023/09/06 06:01:45;;;;;;;9.13;6.23;;;15.00;99.90;;;;;;5007444;28;20241;-73
2023/09/06 06:04:11;;;;;;;7.07;6.47;;;15.00;99.90;;;;;;5005454;28;20179;-74
2023/09/06 06:06:37;;;;;;;7.68;6.88;;;15.20;99.90;;;;;;5008208;28;20560;-74
2023/09/06 06:09:11;;;;;;;8.48;7.25;;;15.40;99.90;;;;;;5005746;28;20238;-74
2023/09/06 06:11:37;;;;;;;7.00;6.38;;;15.50;99.90;;;;;;5004357;28;20563;-74
2023/09/06 06:14:03;;;;;;;7.85;6.68;;;15.80;99.90;;;;;;5007486;28;20214;-74
2023/09/06 06:16:29;;;;;;;8.35;6.43;;;15.50;99.90;;;;;;5006592;28;20675;-73
2023/09/06 06:18:56;;;;;;;6.67;6.07;;;15.70;99.90;;;;;;5003546;28;20301;-74
2023/09/06 06:21:22;;;;;;;6.82;6.00;;;16.10;99.90;;;;;;5006652;28;20210;-74
2023/09/06 06:23:48;;;;;;;6.78;6.13;;;15.70;99.90;;;;;;5007641;28;20185;-74
2023/09/06 06:26:15;;;;;;;7.23;6.63;;;16.10;99.90;;;;;;5002947;28;20198;-74
2023/09/06 06:28:41;;;;;;;7.70;7.00;;;16.30;99.90;;;;;;5005160;28;20572;-74
2023/09/06 06:31:06;;;;;;;9.97;7.33;;;16.30;99.90;;;;;;5007286;28;20183;-74
2023/09/06 06:33:32;;;;;;;6.90;6.20;;;16.30;99.90;;;;;;5007064;28;20229;-74
2023/09/06 06:35:58;;;;;;;8.10;7.10;;;16.70;99.90;;;;;;5016865;28;20222;-75
2023/09/06 06:38:24;;;;;;;7.27;6.23;;;16.90;99.90;;;;;;5005688;28;20202;-74
2023/09/06 06:40:49;;;;;;;7.80;6.97;;;17.00;99.90;;;;;;5006245;28;20183;-74
2023/09/06 06:43:16;;;;;;;7.00;6.43;;;17.10;99.90;;;;;;5005653;28;20666;-74
2023/09/06 06:45:53;;;;;;;9.35;8.45;;;17.70;99.90;;;;;;5008384;28;20191;-74
2023/09/06 06:48:19;;;;;;;9.75;8.75;;;17.70;99.90;;;;;;5005976;28;20303;-75
2023/09/06 06:50:44;;;;;;;8.82;8.02;;;17.90;99.90;;;;;;5005591;28;20526;-75
2023/09/06 06:53:11;;;;;;;9.47;7.43;;;18.00;99.90;;;;;;5009470;28;20754;-75
2023/09/06 06:55:37;;;;;;;9.85;7.40;;;18.00;99.90;;;;;;5001187;28;20831;-74
2023/09/06 06:58:03;;;;;;;7.22;6.43;;;18.30;99.90;;;;;;5007170;28;20238;-75
2023/09/06 07:00:31;;;;;;;7.10;6.40;;;18.40;99.90;;;;;;5010247;28;20709;-75
2023/09/06 07:02:57;;;;;;;6.53;5.93;;;19.00;99.90;;;;;;5008510;28;20222;-75
2023/09/06 07:05:23;;;;;;;7.50;6.70;;;21.20;99.90;;;;;;5006563;28;20446;-75
2023/09/06 07:07:49;;;;;;;6.43;5.83;;;24.10;95.80;;;;;;5006513;28;20469;-75
2023/09/06 07:10:15;;;;;;;8.30;5.30;;;26.60;86.70;;;;;;5005795;28;20443;-74
2023/09/06 07:12:41;;;;;;;6.17;5.40;;;29.40;77.90;;;;;;5009828;28;20666;-74
2023/09/06 07:15:07;;;;;;;5.77;5.30;;;31.70;68.40;;;;;;5009988;28;20210;-74
2023/09/06 07:17:33;;;;;;;6.93;6.20;;;33.00;57.90;;;;;;5010017;28;20470;-74
2023/09/06 07:19:58;;;;;;;5.63;5.17;;;32.30;55.00;;;;;;5003049;28;20569;-75
2023/09/06 07:22:25;;;;;;;6.90;6.30;;;34.20;54.20;;;;;;5010058;28;20533;-74
2023/09/06 07:24:50;;;;;;;5.80;5.20;;;35.90;49.80;;;;;;5008447;28;20245;-75
2023/09/06 07:27:16;;;;;;;5.77;5.27;;;37.20;47.10;;;;;;5007625;28;20862;-75
2023/09/06 07:29:42;;;;;;;9.17;8.37;;;37.20;44.50;;;;;;5010052;28;20213;-75
2023/09/06 07:32:07;;;;;;;6.70;6.20;;;37.90;43.40;;;;;;5008600;28;20205;-75
2023/09/06 07:34:33;;;;;;;5.33;4.90;;;38.80;42.00;;;;;;5009293;28;20187;-75
2023/09/06 07:36:58;;;;;;;6.33;5.43;;;39.70;39.80;;;;;;5006895;28;20214;-75
2023/09/06 07:39:24;;;;;;;5.80;5.20;;;40.50;38.60;;;;;;5008478;28;20632;-75
2023/09/06 07:41:53;;;;;;;5.10;4.70;;;40.70;36.90;;;;;;5008345;28;20718;-74
2023/09/06 07:44:19;;;;;;;5.67;5.27;;;40.80;35.30;;;;;;5008368;28;20318;-75
2023/09/06 07:46:48;;;;;;;4.93;4.60;;;40.00;36.40;;;;;;5009660;28;20453;-74
2023/09/06 07:49:18;;;;;;;6.27;5.70;;;38.90;37.70;;;;;;5005719;28;20473;-75
2023/09/06 07:51:44;;;;;;;5.50;5.00;;;39.80;36.90;;;;;;5007689;28;20464;-75
2023/09/06 07:54:11;;;;;;;5.40;5.00;;;40.50;35.50;;;;;;5006281;28;20809;-75
2023/09/06 07:56:39;;;;;;;5.10;4.70;;;40.30;35.60;;;;;;5007774;28;20481;-75
2023/09/06 07:59:05;;;;;;;6.03;5.53;;;39.40;36.00;;;;;;5007688;28;20509;-74
2023/09/06 08:01:32;;;;;;;5.27;4.87;;;39.50;36.70;;;;;;5009662;28;20818;-74
2023/09/06 08:03:58;;;;;;;5.40;5.00;;;40.40;35.50;;;;;;5009512;28;20481;-75
2023/09/06 08:06:24;;;;;;;5.10;4.73;;;40.60;35.50;;;;;;5007404;28;20469;-75
2023/09/06 08:08:49;;;;;;;5.80;5.30;;;39.70;35.10;;;;;;5007395;28;20535;-75
2023/09/06 08:11:18;;;;;;;5.23;4.87;;;39.10;36.60;;;;;;5007383;28;20194;-75
2023/09/06 08:13:44;;;;;;;6.00;5.50;;;39.90;35.50;;;;;;5009336;28;20269;-75
2023/09/06 08:16:10;;;;;;;5.43;4.90;;;40.80;34.80;;;;;;5007051;28;20893;-75
2023/09/06 08:18:36;;;;;;;9.13;6.40;;;41.60;34.00;;;;;;5008073;28;20199;-75
2023/09/06 08:21:02;;;;;;;5.50;5.00;;;38.10;35.00;;;;;;5006545;28;20442;-75
2023/09/06 08:23:28;;;;;;;16.93;7.30;;;38.10;37.00;;;;;;5006382;28;20210;-75
2023/09/06 08:25:54;;;;;;;6.73;6.10;;;38.10;36.50;;;;;;5007374;28;20233;-75
2023/09/06 08:28:19;;;;;;;7.17;6.67;;;37.80;38.00;;;;;;5006435;28;20230;-75
2023/09/06 08:30:46;;;;;;;6.03;5.43;;;37.30;38.70;;;;;;5008791;28;20977;-75
2023/09/06 08:33:13;;;;;;;5.93;5.47;;;36.80;39.60;;;;;;5004047;28;20241;-75
2023/09/06 08:35:38;;;;;;;6.17;5.67;;;36.90;39.20;;;;;;5008917;28;20465;-75
2023/09/06 08:38:04;;;;;;;6.27;5.77;;;36.50;39.60;;;;;;5007750;28;20465;-75
2023/09/06 08:40:29;;;;;;;6.27;5.63;;;35.50;40.60;;;;;;5006810;28;20191;-74
2023/09/06 08:42:57;;;;;;;7.30;6.60;;;34.70;41.90;;;;;;5008567;28;20241;-75
2023/09/06 08:45:24;;;;;;;7.80;6.00;;;33.50;43.20;;;;;;5008381;28;20251;-75
2023/09/06 08:47:50;;;;;;;7.73;7.03;;;31.90;46.20;;;;;;5006877;28;20469;-75
2023/09/06 08:50:17;;;;;;;7.63;6.63;;;31.20;48.60;;;;;;5005808;28;20837;-75
2023/09/06 08:52:44;;;;;;;6.67;5.93;;;30.10;50.60;;;;;;5007282;28;20487;-75
2023/09/06 08:55:10;;;;;;;6.30;5.70;;;29.40;52.10;;;;;;5005104;28;20534;-75
2023/09/06 08:57:41;;;;;;;8.20;6.03;;;28.70;53.80;;;;;;5006790;28;20526;-75
2023/09/06 09:00:09;;;;;;;6.40;5.80;;;28.20;55.30;;;;;;5003669;28;20449;-76
2023/09/06 09:02:40;;;;;;;6.73;6.13;;;27.60;56.90;;;;;;5005939;28;20436;-75
2023/09/06 09:05:06;;;;;;;6.37;5.77;;;27.10;59.20;;;;;;5001188;28;20460;-75
2023/09/06 09:07:32;;;;;;;5.67;5.17;;;26.90;59.80;;;;;;5006897;28;20463;-75
2023/09/06 09:10:11;;;;;;;6.40;5.90;;;26.70;61.60;;;;;;5007317;28;20561;-75
2023/09/06 09:12:38;;;;;;;8.87;7.77;;;26.30;63.00;;;;;;5007443;28;20536;-75
2023/09/06 09:15:05;;;;;;;6.90;6.13;;;26.00;64.80;;;;;;5007891;28;20477;-75
2023/09/06 09:17:31;;;;;;;7.80;7.17;;;26.00;65.40;;;;;;5007696;28;21045;-76
2023/09/06 09:19:59;;;;;;;6.60;5.40;;;25.70;67.30;;;;;;5005563;28;20446;-75
2023/09/06 09:22:30;;;;;;;7.13;6.50;;;25.50;68.40;;;;;;5005740;28;20456;-75
2023/09/06 09:25:04;;;;;;;6.50;5.90;;;25.50;69.80;;;;;;5006603;28;20452;-76
2023/09/06 09:27:33;;;;;;;5.83;5.23;;;25.40;70.40;;;;;;5005519;28;21037;-76
2023/09/06 09:30:01;;;;;;;6.13;5.63;;;25.10;70.70;;;;;;5008053;28;20858;-75
2023/09/06 09:32:27;;;;;;;6.10;5.57;;;25.30;71.10;;;;;;5007900;28;20539;-75
2023/09/06 09:34:54;;;;;;;6.00;5.50;;;24.90;72.00;;;;;;5005601;28;20953;-75
2023/09/06 09:37:20;;;;;;;5.70;5.20;;;25.00;72.60;;;;;;5006055;28;20576;-75
2023/09/06 09:39:47;;;;;;;5.77;5.30;;;25.10;73.30;;;;;;5005698;28;20852;-76
2023/09/06 09:42:14;;;;;;;5.00;4.60;;;25.10;73.00;;;;;;5005879;28;20480;-75
2023/09/06 09:44:40;;;;;;;5.10;4.70;;;24.90;73.80;;;;;;5007754;28;20445;-75
2023/09/06 09:47:13;;;;;;;6.80;6.13;;;25.20;73.90;;;;;;5006468;28;20814;-75
2023/09/06 09:49:42;;;;;;;7.00;5.60;;;25.30;71.60;;;;;;5006602;28;20928;-75
2023/09/06 09:52:13;;;;;;;7.63;5.60;;;25.30;72.60;;;;;;5006979;28;20444;-75
2023/09/06 09:54:45;;;;;;;5.83;5.33;;;25.30;73.40;;;;;;5006554;28;20448;-75
2023/09/06 09:57:12;;;;;;;5.97;5.47;;;25.30;72.90;;;;;;5002787;28;21007;-75
2023/09/06 09:59:38;;;;;;;5.63;5.17;;;25.40;73.90;;;;;;5006236;28;20856;-75
2023/09/06 10:02:05;;;;;;;5.53;4.77;;;25.50;74.00;;;;;;5007831;28;20446;-75
2023/09/06 10:04:36;;;;;;;5.77;5.27;;;25.20;73.70;;;;;;5004823;28;20859;-76
2023/09/06 10:07:04;;;;;;;6.17;5.63;;;25.70;73.90;;;;;;5007613;28;20438;-75
2023/09/06 10:09:32;;;;;;;8.70;7.10;;;25.60;74.90;;;;;;5005845;28;20532;-76
2023/09/06 10:12:01;;;;;;;7.63;6.20;;;25.60;74.80;;;;;;5005320;28;20448;-75
2023/09/06 10:14:28;;;;;;;10.27;7.87;;;25.60;74.30;;;;;;5005587;28;20796;-75
2023/09/06 10:16:55;;;;;;;9.50;5.97;;;25.70;75.20;;;;;;5006887;28;20515;-75
2023/09/06 10:19:22;;;;;;;8.27;6.93;;;25.80;75.20;;;;;;5009517;28;20464;-76
2023/09/06 10:21:48;;;;;;;6.53;5.93;;;25.60;75.00;;;;;;5008436;28;20632;-74
2023/09/06 10:24:18;;;;;;;6.60;5.90;;;25.60;75.70;;;;;;5011266;28;20442;-75
2023/09/06 10:26:47;;;;;;;7.53;6.93;;;25.60;76.00;;;;;;5005048;28;20527;-75
2023/09/06 10:29:19;;;;;;;8.23;6.00;;;25.60;77.00;;;;;;5008689;28;20548;-75
2023/09/06 10:31:49;;;;;;;7.67;6.10;;;25.60;77.20;;;;;;5007823;28;20532;-74
2023/09/06 10:34:15;;;;;;;7.33;6.67;;;25.60;78.10;;;;;;5011292;28;20961;-75
2023/09/06 10:36:51;;;;;;;6.20;5.60;;;25.70;77.50;;;;;;5010176;28;20504;-75
2023/09/06 10:39:21;;;;;;;6.10;5.60;;;25.70;77.50;;;;;;5009391;28;21039;-75
2023/09/06 10:42:11;;;;;;;6.67;6.07;;;25.80;78.40;;;;;;5007427;28;20861;-75
2023/09/06 10:44:55;;;;;;;7.37;6.67;;;25.80;77.10;;;;;;5010229;28;20449;-76
2023/09/06 10:47:32;;;;;;;6.63;6.13;;;25.90;77.70;;;;;;5009019;28;20442;-75
2023/09/06 10:50:21;;;;;;;7.80;7.20;;;25.90;77.80;;;;;;5010716;28;20480;-75
2023/09/06 10:52:49;;;;;;;7.27;6.57;;;26.00;77.70;;;;;;5003907;28;20442;-75
2023/09/06 10:55:19;;;;;;;10.10;7.20;;;26.30;78.00;;;;;;5006742;28;20842;-75
2023/09/06 10:57:52;;;;;;;6.80;6.20;;;26.10;78.20;;;;;;5009971;28;20569;-75
2023/09/06 11:00:27;;;;;;;7.10;6.50;;;26.10;77.90;;;;;;5010628;28;20468;-75
2023/09/06 11:03:07;;;;;;;7.63;7.13;;;26.20;77.20;;;;;;5010624;28;20440;-75
2023/09/06 11:05:38;;;;;;;6.27;5.67;;;26.30;77.60;;;;;;5007808;28;20445;-75
2023/09/06 11:08:06;;;;;;;7.10;6.60;;;26.60;77.00;;;;;;5009961;28;20470;-75
2023/09/06 11:10:32;;;;;;;6.80;6.23;;;26.80;76.70;;;;;;5006498;28;20456;-75
2023/09/06 11:13:09;;;;;;;6.80;6.20;;;26.80;75.80;;;;;;5007787;28;20443;-75
2023/09/06 11:15:36;;;;;;;8.10;6.17;;;26.70;76.00;;;;;;5008568;28;20489;-76
2023/09/06 11:18:03;;;;;;;6.03;5.50;;;26.70;76.00;;;;;;5009614;28;20466;-75
2023/09/06 11:20:30;;;;;;;7.40;6.70;;;26.60;76.00;;;;;;5007780;28;20454;-75
2023/09/06 11:22:58;;;;;;;6.50;5.90;;;26.60;76.70;;;;;;5010264;28;20485;-74
2023/09/06 11:25:25;;;;;;;7.70;6.10;;;26.60;76.50;;;;;;5006477;28;20456;-75
2023/09/06 11:27:55;;;;;;;6.20;5.77;;;26.60;76.60;;;;;;5007330;28;20473;-75
2023/09/06 11:30:21;;;;;;;7.93;7.23;;;26.70;76.90;;;;;;5007736;28;20440;-75
2023/09/06 11:32:51;;;;;;;6.40;5.80;;;26.90;76.80;;;;;;5008629;28;20448;-75
2023/09/06 11:35:26;;;;;;;9.30;8.40;;;26.80;75.80;;;;;;5022846;28;20479;-75
2023/09/06 11:37:54;;;;;;;7.13;6.43;;;26.80;77.10;;;;;;5006290;28;20462;-75
2023/09/06 11:40:21;;;;;;;9.73;5.90;;;27.00;75.90;;;;;;5006343;28;20447;-75
2023/09/06 11:42:59;;;;;;;7.03;6.30;;;26.90;76.20;;;;;;5009551;28;20937;-75
2023/09/06 11:45:26;;;;;;;6.30;5.80;;;27.00;76.40;;;;;;5009111;28;20439;-75
2023/09/06 11:47:53;;;;;;;6.57;5.97;;;26.90;76.70;;;;;;5008906;28;20470;-75
2023/09/06 11:50:21;;;;;;;7.70;5.97;;;27.00;76.60;;;;;;5004710;28;20442;-74
2023/09/06 11:52:48;;;;;;;6.60;6.00;;;27.10;75.70;;;;;;5008873;28;20478;-75
2023/09/06 11:55:21;;;;;;;5.63;5.13;;;27.20;75.70;;;;;;5004925;28;20614;-75
2023/09/06 11:57:52;;;;;;;6.30;5.80;;;27.40;74.40;;;;;;5006985;28;20479;-75
2023/09/06 12:00:28;;;;;;;5.67;5.17;;;28.10;72.40;;;;;;5006566;28;20878;-75
2023/09/06 12:03:01;;;;;;;5.30;4.90;;;28.60;69.50;;;;;;5008347;28;20746;-75
2023/09/06 12:05:27;;;;;;;7.50;5.63;;;28.60;68.50;;;;;;5006852;28;20449;-75
2023/09/06 12:07:55;;;;;;;6.43;5.93;;;28.80;67.70;;;;;;5007231;28;20552;-74
2023/09/06 12:10:22;;;;;;;6.20;5.37;;;28.90;67.10;;;;;;5001030;28;20452;-74
2023/09/06 12:12:49;;;;;;;6.00;5.50;;;28.60;67.20;;;;;;5008395;28;20483;-75
2023/09/06 12:15:20;;;;;;;5.90;5.40;;;28.80;68.00;;;;;;5007146;28;20481;-75
2023/09/06 12:17:50;;;;;;;8.47;6.97;;;28.90;66.00;;;;;;5007126;28;20547;-75
2023/09/06 12:20:16;;;;;;;6.57;5.97;;;28.70;65.80;;;;;;5005447;28;20451;-75
2023/09/06 12:22:42;;;;;;;9.10;8.20;;;28.50;66.30;;;;;;5007086;28;20486;-75
2023/09/06 12:25:08;;;;;;;5.53;5.13;;;28.40;66.60;;;;;;5005375;28;20459;-75
2023/09/06 12:27:33;;;;;;;6.60;6.07;;;28.30;66.70;;;;;;5006741;28;20197;-75
2023/09/06 12:29:59;;;;;;;6.60;6.10;;;28.30;66.50;;;;;;5007919;28;20438;-75
2023/09/06 12:32:24;;;;;;;5.43;4.83;;;28.30;66.20;;;;;;5007989;28;20175;-75
2023/09/06 12:34:50;;;;;;;5.50;5.00;;;28.20;66.50;;;;;;5005514;28;20213;-75
2023/09/06 12:37:17;;;;;;;6.13;5.63;;;28.20;65.50;;;;;;5008364;28;20182;-75
2023/09/06 12:39:43;;;;;;;5.63;4.97;;;28.10;65.80;;;;;;5004718;28;20267;-75
2023/09/06 12:42:09;;;;;;;4.80;4.50;;;28.10;65.30;;;;;;5003935;28;20535;-75
2023/09/06 12:44:34;;;;;;;5.33;4.93;;;28.20;64.90;;;;;;5007907;28;20440;-75
2023/09/06 12:47:00;;;;;;;5.80;5.30;;;28.20;65.30;;;;;;5007642;28;20197;-75
2023/09/06 12:49:26;;;;;;;6.40;5.80;;;28.20;64.80;;;;;;5006326;28;20189;-75
2023/09/06 12:51:51;;;;;;;5.40;5.00;;;28.20;64.80;;;;;;5010722;28;20247;-74
2023/09/06 12:54:17;;;;;;;4.80;4.40;;;28.00;64.70;;;;;;5008131;28;20185;-75
2023/09/06 12:56:43;;;;;;;5.87;5.40;;;28.10;65.90;;;;;;5005814;28;20213;-75
2023/09/06 12:59:08;;;;;;;5.70;5.30;;;28.00;65.90;;;;;;5007994;28;20677;-75